Data for 06/10/2015

Time Sea-Level Adjusted Pressure Absolute Pressure Temperature Relative Humidity Dew Point   
(mb) (inHg) (mb) (inHg) (C) (F) (%) (C) (F)
00:05 1017 30.03 846 24.98 16.3 61.3 64 9.5 49
00:10 1017 30.03 846 24.98 16.2 61.2 64 9.5 49.1
00:15 1017 30.03 846 24.98 16.2 61.1 63 9.1 48.4
00:20 1017 30.03 846 24.98 16.3 61.3 65 9.6 49.4
00:25 1017 30.03 846 24.98 15.9 60.5 67 9.9 49.8
00:30 1017 30.03 846 24.98 15.4 59.7 69 9.7 49.4
00:35 1017 30.03 846 24.98 15.3 59.5 68 9.5 49.2
00:40 1017 30.03 846 24.98 15.4 59.7 65 9 48.2
00:45 1017 30.03 846 24.98 15.7 60.3 67 9.7 49.5
00:50 1017 30.03 846 24.98 15.3 59.5 70 9.8 49.7
00:55 1016 30 846 24.98 15.2 59.3 68 9.4 48.9
01:00 1016 30 845 24.95 15.3 59.5 71 10.1 50.1
01:05 1016 30 845 24.95 15.3 59.5 70 9.8 49.7
01:10 1016 30 845 24.95 14.9 58.8 71 9.7 49.4
01:15 1016 30 845 24.95 14.9 58.9 68 9.1 48.3
01:20 1016 30 845 24.95 15.1 59.1 70 9.6 49.4
01:25 1016 30 845 24.95 14.8 58.6 69 9.1 48.4
01:30 1016 30 845 24.95 14.9 58.8 69 9.4 48.9
01:35 1016 30 845 24.95 14.8 58.7 69 9.1 48.5
01:40 1016 30 845 24.95 14.8 58.7 69 9.2 48.5
01:45 1016 30 845 24.95 14.7 58.5 69 9.2 48.5
01:50 1016 30 845 24.95 14.6 58.3 69 9 48.3
01:55 1016 30 845 24.95 14.7 58.4 68 8.9 47.9
02:00 1016 30 845 24.95 14.8 58.7 69 9.2 48.5
02:05 1016 30 845 24.95 14.7 58.4 70 9.4 48.9
02:10 1016 30 845 24.95 14.5 58.1 71 9.4 48.9
02:15 1016 30 845 24.95 14.3 57.7 70 9 48.2
02:20 1016 30 845 24.95 14.4 57.9 69 8.9 47.9
02:25 1016 30 845 24.95 14.4 57.9 69 8.8 47.8
02:30 1016 30 845 24.95 14.4 57.9 68 8.6 47.5
02:35 1016 30 845 24.95 14.6 58.2 66 8.5 47.3
02:40 1016 30 845 24.95 14.8 58.6 65 8.3 46.9
02:45 1016 30 845 24.95 15 58.9 64 8.3 46.9
02:50 1015 29.97 845 24.95 15.1 59.2 63 8.1 46.6
02:55 1015 29.97 845 24.95 15.2 59.4 63 8.4 47
03:00 1015 29.97 845 24.95 15.2 59.3 64 8.5 47.3
03:05 1015 29.97 845 24.95 15 58.9 65 8.6 47.4
03:10 1015 29.97 844 24.92 14.9 58.8 65 8.5 47.3
03:15 1015 29.97 844 24.92 14.9 58.8 65 8.5 47.2
03:20 1015 29.97 844 24.92 14.9 58.9 66 8.6 47.5
03:25 1015 29.97 844 24.92 14.9 58.9 66 8.6 47.5
03:30 1015 29.97 844 24.92 15.1 59.1 65 8.6 47.5
03:35 1015 29.97 844 24.92 15.1 59.1 65 8.7 47.6
03:40 1015 29.97 844 24.92 15.1 59.2 65 8.6 47.5
03:45 1015 29.97 844 24.92 15.2 59.4 64 8.6 47.5
03:50 1015 29.97 844 24.92 15.2 59.4 63 8.2 46.8
03:55 1015 29.97 844 24.92 15.4 59.8 62 8.4 47.1
04:00 1015 29.97 844 24.92 15.5 59.9 62 8.4 47.1
04:05 1015 29.97 844 24.92 15.4 59.8 63 8.4 47.1
04:10 1015 29.97 844 24.92 15.4 59.6 63 8.5 47.4
04:15 1015 29.97 844 24.92 15.2 59.3 65 8.6 47.5
04:20 1015 29.97 844 24.92 14.9 58.8 67 8.9 48.1
04:25 1015 29.97 844 24.92 14.8 58.7 68 9.1 48.4
04:30 1015 29.97 844 24.92 15 59 65 8.6 47.4
04:35 1015 29.97 844 24.92 15 58.9 64 8.3 47
04:40 1015 29.97 844 24.92 14.9 58.9 64 8.3 46.9
04:45 1015 29.97 844 24.92 15 59.1 62 8 46.4
04:50 1015 29.97 844 24.92 15.4 59.6 61 7.9 46.3
04:55 1015 29.97 844 24.92 15.6 60 61 8.1 46.6
05:00 1015 29.97 844 24.92 15.4 59.7 64 8.7 47.6
05:05 1015 29.97 844 24.92 15.3 59.5 62 8.1 46.6
05:10 1015 29.97 844 24.92 15 58.9 64 8.3 46.9
05:15 1015 29.97 844 24.92 14.6 58.2 65 8.2 46.7
05:20 1015 29.97 844 24.92 14.6 58.2 64 7.9 46.2
05:25 1015 29.97 844 24.92 14.4 57.9 66 8.1 46.6
05:30 1015 29.97 844 24.92 14.4 57.9 71 9.2 48.6
05:35 1015 29.97 845 24.95 14.5 58.2 65 8.1 46.5
05:40 1015 29.97 845 24.95 14.3 57.7 66 8 46.3
05:45 1015 29.97 845 24.95 14.3 57.8 64 7.7 45.9
05:50 1015 29.97 845 24.95 14.4 58 65 7.9 46.3
05:55 1015 29.97 845 24.95 14.5 58.1 65 8.1 46.7
06:00 1015 29.97 845 24.95 14.4 57.8 65 7.9 46.3
06:05 1015 29.97 845 24.95 14.3 57.7 65 8 46.4
06:10 1015 29.97 845 24.95 14.4 57.8 66 8.3 46.9
06:15 1015 29.97 845 24.95 14.4 57.8 68 8.5 47.3
06:20 1015 29.97 845 24.95 14.4 57.9 66 8.1 46.5
06:25 1015 29.97 845 24.95 14.7 58.5 66 8.4 47.1
06:30 1015 29.97 845 24.95 15 58.9 65 8.4 47.1
06:35 1016 30 845 24.95 15.1 59.1 65 8.6 47.4
06:40 1016 30 845 24.95 15.3 59.5 63 8.4 47.2
06:45 1016 30 845 24.95 15.4 59.7 64 8.6 47.5
06:50 1016 30 845 24.95 15.4 59.8 65 9.1 48.3
06:55 1016 30 845 24.95 15.5 59.8 64 8.8 47.9
07:00 1016 30 845 24.95 15.6 60 64 8.9 47.9
07:05 1016 30 845 24.95 15.6 60 64 8.9 48.1
07:10 1016 30 845 24.95 15.6 60.1 62 8.5 47.2
07:15 1016 30 845 24.95 15.7 60.2 64 9 48.2
07:20 1016 30 845 24.95 15.6 60.1 67 9.6 49.4
07:25 1016 30 845 24.95 15.5 60 67 9.5 49
07:30 1016 30 845 24.95 15.7 60.3 66 9.4 49
07:35 1016 30 845 24.95 16.1 61 63 9.3 48.7
07:40 1016 30 845 24.95 16.5 61.6 61 9.1 48.3
07:45 1016 30 845 24.95 16.9 62.4 59 8.9 48
07:50 1016 30 845 24.95 17.2 62.9 57 8.8 47.8
07:55 1016 30 845 24.95 17.9 64.2 54 8.6 47.5
08:00 1016 30 845 24.95 18.1 64.5 55 9 48.3
08:05 1016 30 845 24.95 17.9 64.2 56 9 48.2
08:10 1016 30 845 24.95 18.6 65.4 52 8.6 47.5
08:15 1016 30 845 24.95 19.3 66.7 48 8.3 46.9
08:20 1016 30 845 24.95 19.8 67.7 46 7.9 46.1
08:25 1016 30 845 24.95 20.2 68.4 43 7.3 45.1
08:30 1016 30 845 24.95 20.6 69 43 7.8 46.1
08:35 1016 30 845 24.95 20.7 69.3 43 7.9 46.2
08:40 1016 30 845 24.95 21.3 70.3 42 8 46.4
08:45 1016 30 845 24.95 21.4 70.5 42 8.1 46.6
08:50 1016 30 845 24.95 21.7 71 41 8.1 46.6
08:55 1016 30 845 24.95 21.8 71.2 41 8.1 46.6
09:00 1016 30 845 24.95 22.3 72.2 38 7.7 45.8
09:05 1016 30 845 24.95 22.9 73.1 38 8.1 46.5
09:10 1016 30 845 24.95 22.4 72.4 41 8.8 47.8
09:15 1016 30 845 24.95 22.4 72.2 39 7.8 46.1
09:20 1016 30 845 24.95 22.8 73.1 39 8.2 46.7
09:25 1016 30 845 24.95 23.2 73.7 38 8.2 46.7
09:30 1016 30 845 24.95 23.2 73.8 37 8 46.4
09:35 1016 30 845 24.95 23.1 73.5 38 8.1 46.6
09:40 1016 30 845 24.95 23.2 73.8 37 8 46.4
09:45 1016 30 845 24.95 23.3 73.9 36 7.7 45.9
09:50 1016 30 845 24.95 23.5 74.3 38 8.7 47.6
09:55 1015 29.97 845 24.95 23.5 74.2 37 8.3 46.9
10:00 1015 29.97 845 24.95 23.9 74.9 34 7.2 45
10:05 1015 29.97 845 24.95 23.9 75 36 8.2 46.8
10:10 1015 29.97 845 24.95 24 75.1 36 8.3 46.9
10:15 1015 29.97 845 24.95 24.1 75.3 36 8.4 47
10:20 1015 29.97 844 24.92 23.9 75.1 36 8.2 46.7
10:25 1015 29.97 844 24.92 23.8 74.8 36 8 46.3
10:30 1015 29.97 844 24.92 23.1 73.7 38 8.3 47
10:35 1015 29.97 844 24.92 22 71.6 41 8.4 47.2
10:40 1015 29.97 844 24.92 22 71.6 40 8.1 46.5
10:45 1015 29.97 844 24.92 22.4 72.3 37 7 44.6
10:50 1015 29.97 844 24.92 23.7 74.7 36 8 46.3
10:55 1015 29.97 844 24.92 24.1 75.4 36 8.5 47.2
11:00 1015 29.97 844 24.92 24.4 75.9 37 9 48.2
11:05 1015 29.97 844 24.92 24 75.3 39 9.5 49.2
11:10 1015 29.97 844 24.92 23.6 74.4 40 9.4 48.8
11:15 1015 29.97 844 24.92 22.9 73.2 40 8.9 48.1
11:20 1015 29.97 844 24.92 22.5 72.6 41 8.9 48
11:25 1015 29.97 844 24.92 22.7 72.8 42 9.2 48.5
11:30 1015 29.97 844 24.92 22.6 72.7 43 9.5 49.2
11:35 1015 29.97 844 24.92 22.7 72.8 41 8.9 48
11:40 1015 29.97 844 24.92 23.6 74.4 38 8.5 47.3
11:45 1015 29.97 844 24.92 23.9 75 38 9 48.1
11:50 1015 29.97 844 24.92 24.4 75.8 38 9.3 48.8
11:55 1015 29.97 844 24.92 24.2 75.5 38 9.2 48.5
12:00 1015 29.97 844 24.92 24.3 75.7 37 8.9 48.1
12:05 1015 29.97 844 24.92 24.4 76 36 8.8 47.8
12:10 1014 29.94 844 24.92 24.7 76.5 34 8 46.4
12:15 1014 29.94 844 24.92 24.4 75.8 37 8.9 48
12:20 1014 29.94 844 24.92 24.4 76 37 9.1 48.3
12:25 1014 29.94 844 24.92 25 77.1 32 7.6 45.7
12:30 1014 29.94 844 24.92 25.4 77.7 35 9.1 48.4
12:35 1014 29.94 844 24.92 25.1 77.1 35 8.8 47.8
12:40 1014 29.94 844 24.92 24.6 76.4 34 7.8 46
12:45 1014 29.94 844 24.92 25.6 78 32 8.1 46.6
12:50 1014 29.94 844 24.92 25.8 78.5 31 7.5 45.5
12:55 1014 29.94 844 24.92 25.9 78.6 32 8.3 47
13:00 1014 29.94 843 24.89 25.6 78.1 33 8.3 46.9
13:05 1014 29.94 843 24.89 25.2 77.4 37 9.7 49.5
13:10 1014 29.94 843 24.89 25 77 36 9.2 48.5
13:15 1014 29.94 843 24.89 24.6 76.2 38 9.4 49
13:20 1014 29.94 843 24.89 24.5 76.1 36 8.7 47.6
13:25 1014 29.94 843 24.89 25 76.9 35 8.6 47.4
13:30 1014 29.94 843 24.89 25.1 77.3 33 7.9 46.2
13:35 1014 29.94 843 24.89 24.8 76.6 35 8.7 47.7
13:40 1014 29.94 843 24.89 24.8 76.6 36 8.7 47.7
13:45 1014 29.94 843 24.89 24.3 75.8 36 8.7 47.6
13:50 1014 29.94 843 24.89 24 75.2 41 10.2 50.3
13:55 1014 29.94 843 24.89 24.3 75.8 41 10.3 50.5
14:00 1014 29.94 843 24.89 23.9 75 43 10.7 51.3
14:05 1014 29.94 843 24.89 23.9 75.1 42 10.3 50.5
14:10 1014 29.94 843 24.89 23.6 74.6 43 10.6 51
14:15 1014 29.94 843 24.89 23.4 74.1 45 11 51.9
14:20 1014 29.94 843 24.89 22.9 73.1 49 11.7 53
14:25 1014 29.94 843 24.89 22.6 72.6 48 11.1 52
14:30 1014 29.94 843 24.89 22.4 72.3 47 10.6 51
14:35 1014 29.94 843 24.89 22.2 72 47 10.5 50.8
14:40 1014 29.94 843 24.89 21.9 71.4 49 10.9 51.5
14:45 1014 29.94 843 24.89 22.2 72 47 10.6 51.1
14:50 1014 29.94 843 24.89 23.1 73.6 42 9.6 49.4
14:55 1014 29.94 843 24.89 24.1 75.3 42 10.5 50.8
15:00 1014 29.94 843 24.89 24.1 75.3 38 9 48.3
15:05 1014 29.94 843 24.89 24.1 75.4 41 10.3 50.6
15:10 1014 29.94 843 24.89 24.1 75.3 38 9.1 48.3
15:15 1014 29.94 843 24.89 24.8 76.7 35 8.8 47.8
15:20 1014 29.94 843 24.89 24.6 76.4 36 8.6 47.5
15:25 1014 29.94 843 24.89 24.4 76 36 8.7 47.6
15:30 1014 29.94 843 24.89 24.5 76 34 7.8 46
15:35 1014 29.94 843 24.89 25.2 77.3 33 7.8 46.1
15:40 1014 29.94 843 24.89 25.3 77.5 33 8.2 46.7
15:45 1014 29.94 843 24.89 25 77 35 8.8 47.8
15:50 1014 29.94 843 24.89 25.2 77.4 33 7.9 46.2
15:55 1014 29.94 843 24.89 25.3 77.5 30 6.5 43.7
16:00 1014 29.94 843 24.89 26 78.7 30 7.3 45.1
16:05 1014 29.94 843 24.89 25.7 78.3 30 7.2 44.9
16:10 1014 29.94 843 24.89 25.2 77.4 31 7 44.6
16:15 1014 29.94 843 24.89 25 76.9 31 6.8 44.2
16:20 1014 29.94 843 24.89 24.3 75.7 33 7 44.6
16:25 1014 29.94 843 24.89 23.6 74.5 34 6.9 44.5
16:30 1014 29.94 843 24.89 24.1 75.3 36 8.3 46.9
16:35 1014 29.94 843 24.89 24.5 76.1 34 7.7 45.9
16:40 1014 29.94 843 24.89 24.3 75.7 33 7.2 45
16:45 1014 29.94 843 24.89 24 75.2 35 7.7 45.8
16:50 1014 29.94 843 24.89 23.7 74.6 37 8.2 46.8
16:55 1014 29.94 843 24.89 23.6 74.4 37 8.3 47
17:00 1014 29.94 843 24.89 23.3 73.9 37 8.1 46.6
17:05 1014 29.94 843 24.89 23.2 73.8 37 8.1 46.5
17:10 1014 29.94 843 24.89 23.2 73.8 36 7.6 45.8
17:15 1014 29.94 843 24.89 23.3 74 37 8 46.3
17:20 1014 29.94 843 24.89 23.3 73.9 36 7.7 45.9
17:25 1014 29.94 843 24.89 23.3 74 38 8.3 46.9
17:30 1014 29.94 843 24.89 23.4 74.2 38 8.5 47.3
17:35 1014 29.94 843 24.89 23.1 73.5 38 8.3 46.9
17:40 1014 29.94 843 24.89 22.9 73.3 38 8 46.5
17:45 1014 29.94 843 24.89 23 73.4 36 7.5 45.5
17:50 1014 29.94 843 24.89 23 73.3 37 7.8 46
17:55 1014 29.94 843 24.89 22.9 73.2 37 7.8 46
18:00 1014 29.94 843 24.89 22.9 73.2 38 8 46.4
18:05 1014 29.94 843 24.89 23 73.4 37 7.7 45.8
18:10 1014 29.94 843 24.89 23.3 73.9 34 6.7 44.1
18:15 1014 29.94 843 24.89 23.5 74.3 34 6.9 44.3
18:20 1014 29.94 843 24.89 22.8 73.1 44 10 50
18:25 1014 29.94 843 24.89 22 71.6 47 10.3 50.6
18:30 1014 29.94 844 24.92 20.9 69.7 53 11.1 52
18:35 1014 29.94 844 24.92 20.5 68.8 54 11.1 51.9
18:40 1014 29.94 844 24.92 20.2 68.4 56 11.2 52.2
18:45 1014 29.94 844 24.92 20.1 68.1 57 11.4 52.6
18:50 1014 29.94 844 24.92 20 67.9 57 11.4 52.5
18:55 1014 29.94 844 24.92 19.9 67.9 57 11.3 52.3
19:00 1014 29.94 844 24.92 19.8 67.7 58 11.3 52.4
19:05 1014 29.94 844 24.92 19.7 67.4 58 11.3 52.4
19:10 1014 29.94 844 24.92 19.5 67.2 59 11.5 52.6
19:15 1014 29.94 844 24.92 19.4 66.9 60 11.5 52.7
19:20 1015 29.97 844 24.92 19.3 66.7 61 11.7 53.1
19:25 1015 29.97 844 24.92 19 66.3 64 12.1 53.8
19:30 1015 29.97 844 24.92 18.8 65.8 65 12.1 53.8
19:35 1015 29.97 844 24.92 18.6 65.5 63 11.6 52.9
19:40 1015 29.97 844 24.92 18.4 65.1 63 11.4 52.5
19:45 1015 29.97 844 24.92 18.2 64.7 63 11.1 52
19:50 1015 29.97 844 24.92 18 64.5 63 10.9 51.6
19:55 1015 29.97 844 24.92 17.9 64.3 63 10.8 51.5
20:00 1015 29.97 844 24.92 17.7 63.9 63 10.7 51.3
20:05 1015 29.97 844 24.92 17.6 63.6 64 10.7 51.3
20:10 1015 29.97 844 24.92 17.4 63.4 65 10.8 51.4
20:15 1015 29.97 844 24.92 17.3 63.1 65 10.7 51.3
20:20 1015 29.97 844 24.92 17.2 62.9 66 10.8 51.4
20:25 1015 29.97 844 24.92 17.1 62.7 66 10.7 51.3
20:30 1015 29.97 845 24.95 17 62.5 66 10.7 51.3
20:35 1015 29.97 845 24.95 16.8 62.3 66 10.5 51
20:40 1015 29.97 845 24.95 16.7 62.1 66 10.5 50.9
20:45 1015 29.97 845 24.95 16.6 61.9 66 10.3 50.6
20:50 1015 29.97 845 24.95 16.5 61.8 66 10.2 50.4
20:55 1015 29.97 845 24.95 16.5 61.6 66 10.1 50.1
21:00 1016 30 845 24.95 16.4 61.5 65 9.9 49.8
21:05 1016 30 845 24.95 16.4 61.4 65 9.9 49.7
21:10 1016 30 845 24.95 16.3 61.3 65 9.8 49.7
21:15 1016 30 845 24.95 16.1 61.1 66 9.8 49.6
21:20 1016 30 845 24.95 16.1 60.9 66 9.7 49.4
21:25 1016 30 845 24.95 16.1 61 66 9.7 49.5
21:30 1016 30 845 24.95 16.1 61 66 9.8 49.6
21:35 1016 30 845 24.95 16 60.8 67 9.9 49.7
21:40 1016 30 845 24.95 16 60.8 66 9.8 49.6
21:45 1016 30 845 24.95 16.1 60.9 66 9.8 49.6
21:50 1016 30 845 24.95 16.1 60.9 66 9.7 49.4
21:55 1016 30 845 24.95 16.1 61 65 9.7 49.4
22:00 1016 30 845 24.95 16.1 61 66 9.8 49.6
22:05 1016 30 845 24.95 16 60.8 66 9.8 49.6
22:10 1016 30 845 24.95 15.9 60.7 66 9.8 49.6
22:15 1016 30 845 24.95 15.8 60.5 67 9.8 49.7
22:20 1016 30 845 24.95 15.8 60.4 67 9.8 49.6
22:25 1016 30 845 24.95 15.9 60.6 67 9.9 49.9
22:30 1016 30 845 24.95 15.8 60.5 68 10.1 50.1
22:35 1016 30 845 24.95 15.8 60.4 69 10.1 50.1
22:40 1016 30 845 24.95 15.7 60.3 69 10 50
22:45 1016 30 845 24.95 15.7 60.2 69 10.2 50.3
22:50 1016 30 845 24.95 15.5 59.9 70 10.2 50.3
22:55 1016 30 845 24.95 15.4 59.8 71 10.2 50.4
23:00 1016 30 845 24.95 15.3 59.6 72 10.3 50.5
23:05 1016 30 845 24.95 15.3 59.5 71 10.2 50.3
23:10 1016 30 845 24.95 15.2 59.4 72 10.2 50.3
23:15 1016 30 845 24.95 15.2 59.3 72 10.3 50.5
23:20 1016 30 845 24.95 15.2 59.3 71 10.1 50.2
23:25 1016 30 845 24.95 15.5 59.8 70 10.1 50.2
23:30 1016 30 845 24.95 15.6 60 70 10.2 50.4
23:35 1016 30 845 24.95 15.5 59.9 71 10.3 50.6
23:40 1016 30 845 24.95 15.4 59.7 72 10.4 50.8
23:45 1016 30 845 24.95 15.3 59.5 73 10.5 50.8
23:50 1016 30 845 24.95 15.1 59.2 74 10.5 50.9
23:55 1016 30 845 24.95 15.1 59.2 73 10.4 50.7
24:00 1016 30 845 24.95 15.2 59.3 73 10.4 50.7